Time;durP1;ratioP1;P1;durP2;ratioP2;P2;SDS_P1;SDS_P2;PMS_P1;PMS_P2;Temp;Humidity;BMP_temperature;BMP_pressure;BME280_temperature;BME280_humidity;BME280_pressure;Samples;Min_cycle;Max_cycle;Signal;HPM_P1;HPM_P2
2022/08/14 00:18:09;;;;;;;7.40;5.30;;;20.20;99.90;;;;;;4958594;28;20041;-82
2022/08/14 00:27:10;;;;;;;7.80;7.00;;;20.10;99.90;;;;;;5073596;28;20154;-82
2022/08/14 00:30:34;;;;;;;8.18;6.00;;;20.00;99.90;;;;;;5058737;28;20449;-83
2022/08/14 00:34:05;;;;;;;6.82;6.22;;;20.00;99.90;;;;;;5073054;28;20486;-82
2022/08/14 03:44:02;;;;;;;11.40;9.70;;;19.60;99.90;;;;;;5185373;22;20052;-80
2022/08/14 03:46:50;;;;;;;13.85;10.98;;;19.60;99.90;;;;;;4992559;28;20049;-80
2022/08/14 03:49:28;;;;;;;12.40;10.20;;;19.50;99.90;;;;;;5035451;28;20049;-80
2022/08/14 03:51:53;;;;;;;14.32;11.73;;;19.50;99.90;;;;;;5033539;28;20041;-80
2022/08/14 03:54:19;;;;;;;12.63;11.32;;;19.40;99.90;;;;;;5033794;28;20501;-81
2022/08/14 03:57:26;;;;;;;13.48;11.73;;;19.40;99.90;;;;;;5035968;28;20048;-80
2022/08/14 03:59:52;;;;;;;12.20;11.00;;;19.30;99.90;;;;;;5030507;28;20029;-81
2022/08/14 04:02:47;;;;;;;12.18;10.98;;;19.40;99.90;;;;;;5020690;28;20037;-81
2022/08/14 04:05:18;;;;;;;10.40;9.30;;;19.40;99.90;;;;;;5030544;28;20041;-80
2022/08/14 04:07:46;;;;;;;13.48;11.23;;;19.30;99.90;;;;;;5019688;28;20410;-80
2022/08/14 04:10:22;;;;;;;;;;;;;;;;;;;;;
2022/08/14 04:12:54;;;;;;;13.90;10.20;;;19.30;99.90;;;;;;5036079;28;20487;-81
2022/08/14 04:15:37;;;;;;;14.75;12.20;;;19.20;99.90;;;;;;5035882;28;20041;-81
2022/08/14 04:18:07;;;;;;;13.32;11.95;;;19.20;99.90;;;;;;5036560;28;20048;-81
2022/08/14 04:20:41;;;;;;;12.52;10.82;;;19.20;99.90;;;;;;5035098;28;20053;-81
2022/08/14 04:23:15;;;;;;;12.95;11.23;;;19.20;99.90;;;;;;5050963;28;20123;-81
2022/08/14 04:25:46;;;;;;;16.42;10.48;;;19.20;99.90;;;;;;5033169;28;20041;-81
2022/08/14 04:28:16;;;;;;;11.43;9.95;;;19.10;99.90;;;;;;5033005;28;20499;-80
2022/08/14 04:30:44;;;;;;;12.98;10.82;;;19.10;99.90;;;;;;5033526;28;20045;-80
2022/08/14 04:33:19;;;;;;;13.70;10.73;;;19.10;99.90;;;;;;5035683;28;20037;-82
2022/08/14 04:50:20;;;;;;;14.20;10.85;;;18.90;99.90;;;;;;4956959;28;20095;-82
2022/08/14 05:17:01;;;;;;;13.27;11.93;;;19.10;99.90;;;;;;3873825;26;20526;-80
2022/08/14 05:20:11;;;;;;;12.55;10.85;;;19.20;99.90;;;;;;5076449;28;20032;-81
2022/08/14 05:22:48;;;;;;;11.63;10.38;;;19.20;99.90;;;;;;5049342;28;20043;-80
2022/08/14 05:25:23;;;;;;;12.93;11.68;;;19.30;99.90;;;;;;5094129;28;20063;-80
2022/08/14 05:28:04;;;;;;;14.77;12.63;;;19.40;99.90;;;;;;5071898;28;20044;-81
2022/08/14 05:30:42;;;;;;;13.18;11.93;;;19.40;99.90;;;;;;5094763;28;20047;-82
2022/08/14 05:33:21;;;;;;;13.35;11.30;;;19.50;99.90;;;;;;5057863;28;20032;-82
2022/08/14 05:35:59;;;;;;;12.35;11.05;;;19.60;99.90;;;;;;5075731;28;20055;-82
2022/08/14 05:38:53;;;;;;;;;;;;;;;;;;;;;
2022/08/14 05:41:22;;;;;;;13.15;11.75;;;19.70;99.90;;;;;;5092113;28;20553;-82
2022/08/14 05:44:17;;;;;;;14.23;12.35;;;19.90;99.90;;;;;;5070134;28;20028;-82
2022/08/14 05:46:42;;;;;;;14.27;12.65;;;19.90;99.90;;;;;;5076032;28;20489;-83
2022/08/14 05:49:26;;;;;;;15.45;12.82;;;20.00;99.90;;;;;;5077171;28;20036;-82
2022/08/14 05:52:01;;;;;;;19.50;13.00;;;20.10;99.90;;;;;;5074244;28;20044;-82
2022/08/14 05:55:02;;;;;;;13.15;11.55;;;20.20;99.90;;;;;;5059011;28;20065;-82
2022/08/14 05:57:57;;;;;;;14.40;12.57;;;20.20;99.90;;;;;;5072218;28;20067;-82
2022/08/14 06:00:45;;;;;;;12.57;11.10;;;20.30;99.90;;;;;;5081404;28;20067;-82
2022/08/14 06:03:26;;;;;;;12.57;10.10;;;20.50;99.90;;;;;;5073330;28;20290;-82
2022/08/14 06:05:58;;;;;;;11.63;10.45;;;20.70;99.90;;;;;;5078137;28;20036;-82
2022/08/14 06:08:26;;;;;;;12.48;11.02;;;20.80;99.90;;;;;;5087412;28;20524;-82
2022/08/14 06:11:01;;;;;;;12.00;10.77;;;20.90;99.90;;;;;;5078429;28;20047;-81
2022/08/14 06:14:10;;;;;;;13.57;11.07;;;21.00;99.90;;;;;;5057917;28;20115;-81
2022/08/14 06:16:49;;;;;;;12.13;10.93;;;21.20;99.90;;;;;;5014183;28;20059;-82
2022/08/14 06:19:23;;;;;;;12.88;11.68;;;21.30;99.90;;;;;;5093139;28;20259;-82
2022/08/14 06:22:06;;;;;;;11.85;10.70;;;21.40;99.90;;;;;;5058077;28;20508;-82
2022/08/14 06:24:34;;;;;;;11.65;10.55;;;21.50;99.90;;;;;;5078812;28;20521;-81
2022/08/14 06:27:00;;;;;;;11.02;9.90;;;21.60;99.90;;;;;;5074485;28;20036;-82
2022/08/14 06:29:31;;;;;;;13.63;10.65;;;21.70;99.90;;;;;;5073649;28;20123;-81
2022/08/14 06:32:09;;;;;;;13.70;11.82;;;21.80;99.90;;;;;;5074552;28;20506;-82
2022/08/14 06:34:47;;;;;;;12.18;10.88;;;21.90;99.90;;;;;;5072593;28;20069;-82
2022/08/14 06:37:22;;;;;;;11.05;9.90;;;22.00;99.90;;;;;;5074241;28;20466;-82
2022/08/14 06:39:50;;;;;;;11.57;10.38;;;22.20;99.90;;;;;;5071357;28;20052;-82
2022/08/14 06:42:37;;;;;;;11.38;10.27;;;22.30;99.90;;;;;;5073080;28;20158;-82
2022/08/14 06:45:10;;;;;;;11.27;9.85;;;22.40;99.90;;;;;;5070508;28;20037;-82
2022/08/14 06:47:41;;;;;;;11.15;9.43;;;22.50;99.90;;;;;;5069958;28;20041;-82
2022/08/14 06:50:39;;;;;;;11.10;9.90;;;22.60;99.90;;;;;;5090045;28;20092;-82
2022/08/14 06:53:13;;;;;;;10.18;9.27;;;22.70;99.90;;;;;;4984926;28;20119;-82
2022/08/14 06:55:42;;;;;;;10.10;9.07;;;22.90;99.90;;;;;;4992750;28;20099;-83
2022/08/14 06:58:16;;;;;;;9.77;8.75;;;23.00;99.90;;;;;;5065001;28;20038;-82
2022/08/14 07:07:05;;;;;;;11.40;10.13;;;23.50;99.90;;;;;;5058518;28;20075;-82
2022/08/14 07:10:03;;;;;;;9.65;8.65;;;23.70;99.90;;;;;;5057672;28;20044;-83
2022/08/14 07:12:38;;;;;;;9.23;8.25;;;24.00;99.90;;;;;;5057276;28;20450;-83
2022/08/14 07:15:35;;;;;;;;;;;;;;;;;;;;;
2022/08/14 22:16:47;;;;;;;7.47;5.85;;;23.10;99.90;;;;;;4886794;29;20097;-80
2022/08/14 23:20:03;;;;;;;10.10;8.20;;;22.30;99.90;;;;;;4828871;29;20089;-78
2022/08/14 23:30:55;;;;;;;9.05;7.43;;;22.20;99.90;;;;;;4837142;29;20472;-79
2022/08/14 23:34:38;;;;;;;8.13;6.68;;;22.10;99.90;;;;;;4796502;29;20050;-78
